createdAt,value
2019-04-06T00:03:15.356Z,28.50
2019-04-06T00:08:16.931Z,28.53
2019-04-06T00:13:18.564Z,28.70
2019-04-06T00:18:20.201Z,29.53
2019-04-06T00:23:21.809Z,28.57
2019-04-06T00:28:23.394Z,29.73
2019-04-06T00:33:25.135Z,28.13
2019-04-06T00:38:26.744Z,30.27
2019-04-06T00:43:28.354Z,31.13
2019-04-06T00:48:29.943Z,28.20
2019-04-06T00:53:31.956Z,31.40
2019-04-06T00:58:34.001Z,28.93
2019-04-06T01:03:35.662Z,29.20
2019-04-06T01:08:37.558Z,28.93
2019-04-06T01:13:39.167Z,30.27
2019-04-06T01:18:40.842Z,30.90
2019-04-06T01:23:42.490Z,29.60
2019-04-06T01:28:44.422Z,30.20
2019-04-06T01:33:46.034Z,29.27
2019-04-06T01:38:47.991Z,30.43
2019-04-06T01:43:49.619Z,30.73
2019-04-06T01:48:51.520Z,31.47
2019-04-06T01:53:53.133Z,32.23
2019-04-06T01:58:55.214Z,32.67
2019-04-06T02:03:57.517Z,32.27
2019-04-06T02:08:59.147Z,32.67
2019-04-06T02:14:00.739Z,33.33
2019-04-06T02:19:02.397Z,33.37
2019-04-06T02:24:05.095Z,32.53
2019-04-06T02:29:06.714Z,32.63
2019-04-06T02:34:08.371Z,32.53
2019-04-06T02:39:10.285Z,32.30
2019-04-06T02:44:12.264Z,34.77
2019-04-06T02:49:13.831Z,34.00
2019-04-06T02:54:15.429Z,35.13
2019-04-06T02:59:17.537Z,36.27
2019-04-06T03:04:19.190Z,36.10
2019-04-06T03:09:20.822Z,34.57
2019-04-06T03:14:22.454Z,35.97
2019-04-06T03:19:24.028Z,37.73
2019-04-06T03:24:25.806Z,32.80
2019-04-06T03:29:27.575Z,34.57
2019-04-06T03:34:29.434Z,36.00
2019-04-06T03:39:31.046Z,34.90
2019-04-06T03:44:32.626Z,34.37
2019-04-06T03:49:34.884Z,35.53
2019-04-06T03:54:36.807Z,36.10
2019-04-06T03:59:38.710Z,35.13
2019-04-06T04:04:40.295Z,36.20
2019-04-06T04:09:41.886Z,37.53
2019-04-06T04:14:43.995Z,36.57
2019-04-06T04:19:45.551Z,35.00
2019-04-06T04:24:47.527Z,34.90
2019-04-06T04:29:49.397Z,35.23
2019-04-06T04:34:51.966Z,33.47
2019-04-06T04:39:53.484Z,34.87
2019-04-06T04:44:55.082Z,35.13
2019-04-06T04:49:57.124Z,33.73
2019-04-06T04:54:58.775Z,32.40
2019-04-06T05:00:00.379Z,34.80
2019-04-06T05:05:01.941Z,33.73
2019-04-06T05:10:04.606Z,32.67
2019-04-06T05:15:07.817Z,32.57
2019-04-06T05:20:13.171Z,34.67
2019-04-06T05:25:14.870Z,41.73
2019-04-06T05:30:16.525Z,33.20
2019-04-06T05:35:18.957Z,34.57
2019-04-06T05:40:20.513Z,35.33
2019-04-06T05:45:22.057Z,32.67
2019-04-06T05:50:23.658Z,32.63
2019-04-06T05:55:25.636Z,34.70
2019-04-06T06:00:27.195Z,34.13
2019-04-06T06:05:28.731Z,34.23
2019-04-06T06:10:30.595Z,34.13
2019-04-06T06:15:32.152Z,34.30
2019-04-06T06:20:33.813Z,34.83
2019-04-06T06:25:35.418Z,33.93
2019-04-06T06:30:36.962Z,36.93
2019-04-06T06:35:38.629Z,34.27
2019-04-06T06:40:40.246Z,34.90
2019-04-06T06:45:42.257Z,36.90
2019-04-06T06:50:43.848Z,34.83
2019-04-06T06:55:48.611Z,37.37
2019-04-06T07:00:52.295Z,38.57
2019-04-06T07:05:53.896Z,39.60
2019-04-06T07:10:56.106Z,39.63
2019-04-06T07:15:58.736Z,40.43
2019-04-06T07:21:00.488Z,43.93
2019-04-06T07:26:02.058Z,41.83
2019-04-06T07:31:03.723Z,43.30
2019-04-06T07:36:05.475Z,46.07
2019-04-06T07:41:07.585Z,45.00
2019-04-06T07:46:10.438Z,43.17
2019-04-06T07:51:11.999Z,45.53
2019-04-06T07:56:13.570Z,46.17
2019-04-06T08:01:15.303Z,48.23
2019-04-06T08:06:16.879Z,48.23
2019-04-06T08:11:18.514Z,49.63
2019-04-06T08:16:20.511Z,50.33
2019-04-06T08:21:22.715Z,49.63
2019-04-06T08:26:24.636Z,49.40
2019-04-06T08:31:26.613Z,50.37
2019-04-06T08:36:28.231Z,49.93
2019-04-06T08:41:29.890Z,49.93
2019-04-06T08:46:31.458Z,48.93
2019-04-06T08:51:33.083Z,48.60
2019-04-06T08:56:34.655Z,50.43
2019-04-06T09:01:36.551Z,51.73
2019-04-06T09:06:38.481Z,50.33
2019-04-06T09:11:43.889Z,51.00
2019-04-06T09:16:46.297Z,52.13
2019-04-06T09:21:47.924Z,51.43
2019-04-06T09:26:50.254Z,54.20
2019-04-06T09:31:51.910Z,51.53
2019-04-06T09:36:56.231Z,52.83
2019-04-06T09:41:57.962Z,50.57
2019-04-06T09:46:59.738Z,51.07
2019-04-06T09:52:01.353Z,48.63
2019-04-06T09:57:02.927Z,47.93
2019-04-06T10:02:04.860Z,45.13
2019-04-06T10:07:06.608Z,47.03
2019-04-06T10:12:08.307Z,47.73
2019-04-06T10:17:10.381Z,44.65
2019-04-06T10:22:12.029Z,43.73
2019-04-06T10:27:13.696Z,41.73
2019-04-06T10:32:15.837Z,40.05
2019-04-06T10:37:17.613Z,40.70
2019-04-06T10:42:19.437Z,40.12
2019-04-06T10:47:21.127Z,40.35
2019-04-06T10:52:22.776Z,40.85
2019-04-06T10:57:24.369Z,40.08
2019-04-06T11:02:27.182Z,40.40
2019-04-06T11:07:29.081Z,38.98
2019-04-06T11:12:33.740Z,39.90
2019-04-06T11:17:35.348Z,40.85
2019-04-06T11:22:37.114Z,39.67
2019-04-06T11:27:38.863Z,40.58
2019-04-06T11:32:40.438Z,37.48
2019-04-06T11:37:42.136Z,40.03
2019-04-06T11:42:43.833Z,37.70
2019-04-06T11:47:45.654Z,38.02
2019-04-06T11:52:47.218Z,36.60
2019-04-06T11:57:48.821Z,34.73
2019-04-06T12:02:50.939Z,35.40
2019-04-06T12:07:52.623Z,36.80
2019-04-06T12:12:55.833Z,37.20
2019-04-06T12:17:57.986Z,37.33
2019-04-06T12:23:00.220Z,36.85
2019-04-06T12:28:02.006Z,27.90
2019-04-06T12:33:03.998Z,26.17
2019-04-06T12:38:05.582Z,26.85
2019-04-06T12:43:08.233Z,27.58
2019-04-06T12:48:10.152Z,27.32
2019-04-06T12:53:11.817Z,26.87
2019-04-06T12:58:13.439Z,24.85
2019-04-06T13:03:15.083Z,25.95
2019-04-06T13:08:18.670Z,26.20
2019-04-06T13:13:20.302Z,26.77
2019-04-06T13:18:21.886Z,28.50
2019-04-06T13:23:24.176Z,29.77
2019-04-06T13:28:26.039Z,30.25
2019-04-06T13:33:27.927Z,28.45
2019-04-06T13:38:29.907Z,28.00
2019-04-06T13:43:31.923Z,28.17
2019-04-06T13:48:33.449Z,28.07
2019-04-06T13:53:35.089Z,28.70
2019-04-06T13:58:36.720Z,27.13
2019-04-06T14:03:38.395Z,26.70
2019-04-06T14:08:40.085Z,26.00
2019-04-06T14:13:41.964Z,26.70
2019-04-06T14:18:43.914Z,25.08
2019-04-06T14:23:46.272Z,28.77
2019-04-06T14:28:48.383Z,27.45
2019-04-06T14:33:49.991Z,28.57
2019-04-06T14:38:51.985Z,29.20
2019-04-06T14:43:53.566Z,29.42
2019-04-06T14:48:55.557Z,30.80
2019-04-06T14:53:57.797Z,30.35
2019-04-06T14:58:59.572Z,31.23
2019-04-06T15:04:01.230Z,32.20
2019-04-06T15:09:05.831Z,31.93
2019-04-06T15:14:07.683Z,30.60
2019-04-06T15:19:09.705Z,31.55
2019-04-06T15:24:11.647Z,32.53
2019-04-06T15:29:13.918Z,34.75
2019-04-06T15:34:15.518Z,38.40
2019-04-06T15:39:17.821Z,40.00
2019-04-06T15:44:19.534Z,36.45
2019-04-06T15:49:21.330Z,36.35
2019-04-06T15:54:23.500Z,36.75
2019-04-06T15:59:25.507Z,38.85
2019-04-06T16:04:27.619Z,39.13
2019-04-06T16:09:29.390Z,39.35
2019-04-06T16:14:30.930Z,39.08
2019-04-06T16:19:33.126Z,39.80
2019-04-06T16:24:34.843Z,39.80
2019-04-06T16:29:36.458Z,36.60
2019-04-06T16:34:38.191Z,34.38
2019-04-06T16:39:40.216Z,37.80
2019-04-06T16:44:41.909Z,35.75
2019-04-06T16:49:43.505Z,36.13
2019-04-06T16:54:45.378Z,36.23
2019-04-06T16:59:46.960Z,37.38
2019-04-06T17:04:48.670Z,35.80
2019-04-06T17:09:50.308Z,35.88
2019-04-06T17:15:04.010Z,36.68
2019-04-06T17:20:05.794Z,35.92
2019-04-06T17:25:07.714Z,35.38
2019-04-06T17:30:09.995Z,33.88
2019-04-06T17:35:11.990Z,35.88
2019-04-06T17:40:14.163Z,36.28
2019-04-06T17:45:16.149Z,35.68
2019-04-06T17:50:19.819Z,36.93
2019-04-06T17:55:21.845Z,38.67
2019-04-06T18:00:24.109Z,43.55
2019-04-06T18:05:26.112Z,40.43
2019-04-06T18:10:28.144Z,42.90
2019-04-06T18:15:29.822Z,45.12
2019-04-06T18:20:31.473Z,44.95
2019-04-06T18:25:33.401Z,45.90
2019-04-06T18:30:36.054Z,46.08
2019-04-06T18:35:42.944Z,53.87
2019-04-06T18:40:49.060Z,47.55
2019-04-06T18:45:55.727Z,47.97
2019-04-06T18:51:04.296Z,48.70
2019-04-06T18:56:11.863Z,46.48
2019-04-06T19:01:20.343Z,49.43
2019-04-06T19:06:26.335Z,50.87
2019-04-06T19:11:33.911Z,48.50
2019-04-06T19:16:37.689Z,52.43
2019-04-06T19:21:44.467Z,50.47
2019-04-06T19:26:52.081Z,53.27
2019-04-06T19:31:57.245Z,52.40
2019-04-06T19:37:09.187Z,54.50
2019-04-06T19:42:19.316Z,51.97
2019-04-06T19:47:23.386Z,52.70
2019-04-06T19:52:30.029Z,51.93
2019-04-06T19:57:37.009Z,52.07
2019-04-06T20:02:45.187Z,53.07
2019-04-06T20:07:54.977Z,53.83
2019-04-06T20:13:04.257Z,57.13
2019-04-06T20:18:10.407Z,57.03
2019-04-06T20:23:23.518Z,55.37
2019-04-06T20:28:32.073Z,56.43
2019-04-06T20:33:50.189Z,54.10
2019-04-06T20:38:49.299Z,55.17
2019-04-06T20:44:01.878Z,56.37
2019-04-06T20:49:11.890Z,58.23
2019-04-06T20:54:22.979Z,55.70
2019-04-06T20:59:31.612Z,59.00
2019-04-06T21:04:40.259Z,58.90
2019-04-06T21:09:49.921Z,59.73
2019-04-06T21:15:01.039Z,61.90
2019-04-06T21:20:09.050Z,63.63
2019-04-06T21:25:19.468Z,60.80
2019-04-06T21:30:32.435Z,58.90
2019-04-06T21:35:50.169Z,60.17
2019-04-06T21:40:55.234Z,61.83
2019-04-06T21:46:10.542Z,60.70
2019-04-06T21:51:19.374Z,63.10
2019-04-06T21:56:30.554Z,58.43
2019-04-06T22:01:44.348Z,60.20
2019-04-06T22:06:58.320Z,60.47
2019-04-06T22:12:15.298Z,63.03
2019-04-06T22:17:25.518Z,63.83
2019-04-06T22:22:35.384Z,65.33
2019-04-06T22:27:49.285Z,64.13
2019-04-06T22:33:03.895Z,67.00
2019-04-06T22:38:24.005Z,65.73
2019-04-06T22:43:48.024Z,64.43
2019-04-06T22:49:07.805Z,63.97
2019-04-06T22:54:24.013Z,64.97
2019-04-06T22:59:49.624Z,65.17
2019-04-06T23:05:08.602Z,64.13
2019-04-06T23:10:29.450Z,65.50
2019-04-06T23:15:54.202Z,63.63
2019-04-06T23:21:15.741Z,65.73
2019-04-06T23:26:46.553Z,66.20
2019-04-06T23:32:12.457Z,65.23
2019-04-06T23:37:36.981Z,68.93
2019-04-06T23:43:00.078Z,68.47
2019-04-06T23:48:31.829Z,70.40
2019-04-06T23:54:10.283Z,67.90
2019-04-06T23:59:35.235Z,69.17
